Terminal Aerodrome Forecast
Issued by NWS

Home | Current Version | Previous Version | Text Only | Print | Product List | Glossary On
Versions: 1 2 3 4 5 6 7 8 9 10 11 12 13 14 15 16
000
FTPQ31 PGUM 222322
TAFGUM
TAF

TAF
PKMJ 222322Z 2300/2324 15008KT P6SM VCSH SCT014 BKN045 BKN110
      TEMPO 2300/2302 4SM SHRA SCT014 OVC030
     FM230500 12007KT P6SM VCSH SCT015 SCT050 BKN120=

USA.gov is the U.S. government's official web portal to all federal, state and local government web resources and services.